Decoded Metar for LZSL (SLIAC in SLOVAKIA) (IATA:SLD) | Meteo·Mobile Aviation Weather
aviador You're here:

LZSL Decoded Metar

SLIAC in SLOVAKIA
Report Time2019-09-21 08:30:00
UTC Time2019-09-21 08:48:27
Flight Rules vfr VFR
WindVRB at 01 kt
Visibility9999 m
Phenomena:N/A
Clouds:Few 022 Hf
Expected CloudBase > 2,800 ft AGL from Temp-Dew spread
CeilingNone
Temp12°C (ISA -1)
Dew Point05°C (63% RH)
AAT10.6°C
QNH1028 hPa
Density Alt531 ft
Elevation1,027 ft
Report Wrong Elevation
Raw Report
LZSL 210830Z VRB01KT 9999 FEW022 12/05 Q1028=

Extra information for LZSL:More info

Metar Taf Metar & Taf Last 4 Metars F.Rules Stats Wind Profile Meteogram Temp Stats Airport Information Weather charts Add Link Nearby VenuesMetar ALERT Operation Metar Decoded Social comments